createdAt,value
2018-02-18T00:02:18.856Z,22.80
2018-02-18T00:04:46.911Z,22.90
2018-02-18T00:07:14.950Z,22.80
2018-02-18T00:09:43.160Z,22.80
2018-02-18T00:12:11.366Z,22.70
2018-02-18T00:14:41.510Z,22.80
2018-02-18T00:17:10.403Z,22.60
2018-02-18T00:19:39.170Z,22.60
2018-02-18T00:22:08.074Z,22.50
2018-02-18T00:24:37.146Z,22.50
2018-02-18T00:27:05.176Z,22.50
2018-02-18T00:29:33.203Z,22.40
2018-02-18T00:32:02.119Z,22.40
2018-02-18T00:34:30.230Z,22.40
2018-02-18T00:36:58.315Z,22.50
2018-02-18T00:39:26.592Z,22.50
2018-02-18T00:41:54.623Z,22.50
2018-02-18T00:44:22.723Z,22.50
2018-02-18T00:46:51.010Z,22.50
2018-02-18T00:49:19.047Z,22.50
2018-02-18T00:51:47.095Z,22.50
2018-02-18T00:54:16.059Z,22.50
2018-02-18T00:56:44.122Z,22.50
2018-02-18T00:59:12.159Z,22.50
2018-02-18T01:01:40.350Z,22.50
2018-02-18T01:04:08.433Z,22.50
2018-02-18T01:06:36.504Z,22.50
2018-02-18T01:09:04.915Z,22.40
2018-02-18T01:11:32.945Z,22.50
2018-02-18T01:14:01.018Z,22.50
2018-02-18T01:16:29.179Z,22.40
2018-02-18T01:18:57.210Z,22.40
2018-02-18T01:21:25.275Z,22.50
2018-02-18T01:23:53.550Z,22.40
2018-02-18T01:26:21.706Z,22.40
2018-02-18T01:28:49.751Z,22.30
2018-02-18T01:31:17.913Z,22.30
2018-02-18T01:33:46.034Z,22.30
2018-02-18T01:36:14.058Z,22.30
2018-02-18T01:38:42.258Z,22.30
2018-02-18T01:41:10.302Z,22.20
2018-02-18T01:43:39.066Z,22.20
2018-02-18T01:46:07.502Z,22.20
2018-02-18T01:48:35.550Z,22.20
2018-02-18T01:51:03.586Z,22.20
2018-02-18T01:53:31.858Z,22.20
2018-02-18T01:55:59.895Z,22.10
2018-02-18T01:58:27.983Z,22.10
2018-02-18T02:00:56.137Z,22.10
2018-02-18T02:03:24.183Z,22.10
2018-02-18T02:05:52.958Z,22.10
2018-02-18T02:08:21.856Z,21.90
2018-02-18T02:10:50.622Z,22.00
2018-02-18T02:13:18.659Z,22.00
2018-02-18T02:15:46.827Z,22.00
2018-02-18T02:18:14.915Z,22.00
2018-02-18T02:20:42.964Z,22.00
2018-02-18T02:23:11.129Z,22.00
2018-02-18T02:25:39.162Z,21.90
2018-02-18T02:28:07.334Z,21.80
2018-02-18T02:30:35.498Z,21.80
2018-02-18T02:33:03.544Z,21.90
2018-02-18T02:35:31.603Z,21.80
2018-02-18T02:37:59.910Z,21.90
2018-02-18T02:40:27.982Z,21.90
2018-02-18T02:42:56.027Z,21.90
2018-02-18T02:45:24.187Z,21.90
2018-02-18T02:47:52.962Z,21.80
2018-02-18T02:50:21.739Z,21.80
2018-02-18T02:52:49.924Z,21.80
2018-02-18T02:55:18.716Z,21.80
2018-02-18T02:57:47.498Z,21.80
2018-02-18T03:00:15.703Z,21.80
2018-02-18T03:02:45.386Z,21.80
2018-02-18T03:05:15.964Z,22.00
2018-02-18T03:07:44.910Z,22.00
2018-02-18T03:12:58.097Z,22.10
2018-02-18T03:15:26.390Z,22.10
2018-02-18T03:17:54.434Z,22.10
2018-02-18T03:20:22.473Z,22.10
2018-02-18T03:22:50.650Z,22.10
2018-02-18T03:25:18.683Z,22.20
2018-02-18T03:27:46.725Z,22.20
2018-02-18T03:30:15.048Z,22.20
2018-02-18T03:32:43.091Z,22.20
2018-02-18T03:35:11.139Z,22.30
2018-02-18T03:37:40.041Z,22.50
2018-02-18T03:40:08.105Z,22.50
2018-02-18T03:42:36.882Z,22.80
2018-02-18T03:45:05.854Z,23.10
2018-02-18T03:47:33.878Z,23.10
2018-02-18T03:50:01.926Z,23.80
2018-02-18T03:52:30.826Z,23.70
2018-02-18T03:54:59.607Z,23.70
2018-02-18T03:57:28.390Z,23.80
2018-02-18T03:59:57.297Z,23.90
2018-02-18T04:02:26.135Z,24.10
2018-02-18T04:04:54.187Z,24.10
2018-02-18T04:07:22.347Z,24.40
2018-02-18T04:09:50.398Z,24.50
2018-02-18T04:12:19.169Z,24.70
2018-02-18T04:14:47.324Z,24.70
2018-02-18T04:17:15.355Z,24.80
2018-02-18T04:19:44.242Z,25.00
2018-02-18T04:22:12.403Z,25.10
2018-02-18T04:24:41.258Z,25.30
2018-02-18T04:27:09.292Z,25.30
2018-02-18T04:29:37.467Z,25.50
2018-02-18T04:32:05.679Z,25.70
2018-02-18T04:34:33.843Z,26.00
2018-02-18T04:37:02.013Z,26.20
2018-02-18T04:39:30.051Z,26.80
2018-02-18T04:41:58.090Z,27.10
2018-02-18T04:44:26.366Z,27.20
2018-02-18T04:46:54.414Z,27.20
2018-02-18T04:49:22.463Z,27.10
2018-02-18T04:51:50.622Z,26.90
2018-02-18T04:54:18.717Z,26.90
2018-02-18T04:56:46.738Z,27.10
2018-02-18T04:59:14.906Z,27.20
2018-02-18T05:01:42.932Z,27.30
2018-02-18T05:04:10.958Z,27.50
2018-02-18T05:06:39.865Z,27.80
2018-02-18T05:09:08.643Z,28.00
2018-02-18T05:11:37.418Z,28.40
2018-02-18T05:14:05.699Z,28.30
2018-02-18T05:16:33.735Z,28.70
2018-02-18T05:19:01.783Z,28.80
2018-02-18T05:21:29.942Z,28.80
2018-02-18T05:23:58.782Z,29.10
2018-02-18T05:26:26.819Z,29.10
2018-02-18T05:28:54.971Z,29.20
2018-02-18T05:31:23.758Z,29.40
2018-02-18T05:33:52.692Z,29.50
2018-02-18T05:36:20.838Z,29.60
2018-02-18T05:38:48.907Z,29.70
2018-02-18T05:41:17.678Z,30.20
2018-02-18T05:43:45.935Z,30.20
2018-02-18T05:46:13.978Z,29.90
2018-02-18T05:48:42.891Z,30.40
2018-02-18T05:51:11.095Z,30.90
2018-02-18T05:53:39.118Z,31.30
2018-02-18T05:56:07.155Z,31.50
2018-02-18T05:58:36.058Z,31.60
2018-02-18T06:01:04.831Z,32.00
2018-02-18T06:03:33.606Z,32.80
2018-02-18T06:06:01.767Z,32.80
2018-02-18T06:08:29.814Z,33.90
2018-02-18T06:10:57.866Z,34.30
2018-02-18T06:13:26.064Z,34.50
2018-02-18T06:15:54.113Z,34.30
2018-02-18T06:18:22.163Z,34.00
2018-02-18T06:20:51.126Z,33.30
2018-02-18T06:23:19.156Z,33.20
2018-02-18T06:25:47.194Z,32.90
2018-02-18T06:28:15.529Z,33.00
2018-02-18T06:30:43.802Z,32.80
2018-02-18T06:33:12.051Z,32.80
2018-02-18T06:35:40.526Z,32.90
2018-02-18T06:38:08.655Z,32.90
2018-02-18T06:40:37.808Z,32.60
2018-02-18T06:43:07.023Z,32.50
2018-02-18T06:45:35.339Z,32.50
2018-02-18T06:48:03.603Z,32.60
2018-02-18T06:50:31.989Z,32.70
2018-02-18T06:53:00.150Z,32.60
2018-02-18T06:55:28.207Z,32.80
2018-02-18T06:57:56.386Z,32.60
2018-02-18T07:00:25.328Z,32.60
2018-02-18T07:02:53.492Z,32.60
2018-02-18T07:05:22.640Z,32.50
2018-02-18T07:07:50.870Z,32.50
2018-02-18T07:10:19.067Z,33.00
2018-02-18T07:12:47.634Z,33.40
2018-02-18T07:15:15.704Z,34.70
2018-02-18T07:17:43.735Z,36.30
2018-02-18T07:20:12.052Z,36.60
2018-02-18T07:22:40.098Z,37.00
2018-02-18T07:25:08.144Z,36.30
2018-02-18T07:27:36.338Z,36.30
2018-02-18T07:30:04.454Z,35.50
2018-02-18T07:32:32.494Z,35.00
2018-02-18T07:35:00.672Z,35.00
2018-02-18T07:37:28.852Z,34.90
2018-02-18T07:39:56.922Z,34.80
2018-02-18T07:42:25.086Z,34.70
2018-02-18T07:44:53.126Z,35.00
2018-02-18T07:47:21.170Z,35.00
2018-02-18T07:49:49.331Z,34.70
2018-02-18T07:52:17.543Z,34.30
2018-02-18T07:54:45.591Z,34.40
2018-02-18T07:57:14.827Z,34.30
2018-02-18T07:59:42.991Z,34.50
2018-02-18T08:02:11.234Z,34.30
2018-02-18T08:04:40.219Z,34.40
2018-02-18T08:07:08.259Z,34.40
2018-02-18T08:09:36.294Z,34.20
2018-02-18T08:12:05.278Z,34.10
2018-02-18T08:14:34.235Z,34.30
2018-02-18T08:17:02.427Z,34.30
2018-02-18T08:19:31.359Z,34.50
2018-02-18T08:22:00.158Z,33.30
2018-02-18T08:24:29.898Z,33.60
2018-02-18T08:26:58.970Z,33.60
2018-02-18T08:29:27.901Z,33.80
2018-02-18T08:31:56.119Z,34.30
2018-02-18T08:34:25.751Z,36.00
2018-02-18T08:36:54.245Z,36.00
2018-02-18T08:39:23.775Z,35.60
2018-02-18T08:41:52.918Z,34.50
2018-02-18T08:44:21.578Z,34.90
2018-02-18T08:46:50.203Z,34.60
2018-02-18T08:49:19.087Z,34.90
2018-02-18T08:51:47.471Z,34.70
2018-02-18T08:54:15.589Z,34.70
2018-02-18T08:56:45.232Z,34.10
2018-02-18T08:59:14.726Z,33.60
2018-02-18T09:01:43.683Z,33.50
2018-02-18T09:04:12.367Z,33.60
2018-02-18T09:06:40.598Z,33.50
2018-02-18T09:09:08.875Z,33.70
2018-02-18T09:11:38.328Z,33.60
2018-02-18T09:14:07.004Z,33.60
2018-02-18T09:16:35.754Z,33.70
2018-02-18T09:19:09.646Z,33.80
2018-02-18T09:21:41.355Z,33.60
2018-02-18T09:24:12.304Z,33.60
2018-02-18T09:26:41.426Z,33.90
2018-02-18T09:29:13.422Z,33.80
2018-02-18T09:31:43.102Z,33.90
2018-02-18T09:34:17.000Z,33.80
2018-02-18T09:36:46.546Z,33.70
2018-02-18T09:39:15.731Z,33.80
2018-02-18T09:41:44.637Z,33.70
2018-02-18T09:44:13.703Z,33.90
2018-02-18T09:46:42.322Z,34.00
2018-02-18T09:49:10.466Z,33.90
2018-02-18T09:51:39.379Z,33.80
2018-02-18T09:54:10.961Z,33.80
2018-02-18T09:56:41.162Z,33.80
2018-02-18T09:59:09.719Z,33.30
2018-02-18T10:01:39.286Z,32.80
2018-02-18T10:04:14.669Z,31.50
2018-02-18T10:06:47.696Z,31.20
2018-02-18T10:09:17.785Z,31.10
2018-02-18T10:11:46.290Z,30.90
2018-02-18T10:14:14.647Z,30.90
2018-02-18T10:16:45.648Z,30.70
2018-02-18T10:19:19.450Z,30.80
2018-02-18T10:21:59.303Z,30.70
2018-02-18T10:24:28.263Z,31.00
2018-02-18T10:26:57.787Z,31.50
2018-02-18T10:29:30.630Z,30.70
2018-02-18T10:32:03.669Z,30.70
2018-02-18T10:34:36.685Z,30.70
2018-02-18T10:37:06.307Z,30.80
2018-02-18T10:39:35.383Z,31.20
2018-02-18T10:42:04.627Z,31.20
2018-02-18T10:44:33.358Z,31.00
2018-02-18T10:47:01.896Z,30.60
2018-02-18T10:49:31.367Z,30.60
2018-02-18T10:51:59.411Z,30.60
2018-02-18T10:54:28.474Z,30.40
2018-02-18T10:56:58.118Z,30.40
2018-02-18T10:59:29.735Z,30.00
2018-02-18T11:02:04.706Z,30.30
2018-02-18T11:04:34.886Z,30.60
2018-02-18T11:07:03.099Z,30.50
2018-02-18T11:09:31.138Z,30.80
2018-02-18T11:12:00.042Z,30.90
2018-02-18T11:14:28.206Z,30.80
2018-02-18T11:16:57.471Z,30.80
2018-02-18T11:19:26.995Z,30.70
2018-02-18T11:21:55.018Z,30.50
2018-02-18T11:24:23.486Z,31.10
2018-02-18T11:26:52.990Z,31.70
2018-02-18T11:29:21.567Z,31.60
2018-02-18T11:31:50.746Z,31.60
2018-02-18T11:34:19.031Z,31.60
2018-02-18T11:36:48.258Z,31.50
2018-02-18T11:39:17.030Z,31.40
2018-02-18T11:41:46.770Z,31.40
2018-02-18T11:44:16.367Z,31.10
2018-02-18T11:46:45.143Z,30.70
2018-02-18T11:49:13.434Z,30.70
2018-02-18T11:51:42.210Z,30.80
2018-02-18T11:54:11.582Z,30.50
2018-02-18T11:56:39.754Z,30.50
2018-02-18T11:59:09.172Z,30.30
2018-02-18T12:01:38.215Z,31.00
2018-02-18T12:04:06.470Z,31.50
2018-02-18T12:06:34.908Z,31.70
2018-02-18T12:09:02.975Z,31.80
2018-02-18T12:11:31.138Z,31.70
2018-02-18T12:13:59.386Z,31.70
2018-02-18T12:16:28.169Z,31.60
2018-02-18T12:18:57.475Z,31.60
2018-02-18T12:21:25.833Z,31.50
2018-02-18T12:23:54.798Z,31.40
2018-02-18T12:26:23.548Z,31.30
2018-02-18T12:28:51.799Z,31.20
2018-02-18T12:31:21.279Z,31.10
2018-02-18T12:33:49.969Z,31.10
2018-02-18T12:36:18.407Z,31.00
2018-02-18T12:38:47.036Z,30.90
2018-02-18T12:41:15.854Z,30.80
2018-02-18T12:43:44.730Z,30.50
2018-02-18T12:46:12.902Z,30.40
2018-02-18T12:48:41.458Z,30.30
2018-02-18T12:51:09.764Z,30.30
2018-02-18T12:53:39.196Z,30.50
2018-02-18T12:56:07.554Z,30.50
2018-02-18T12:58:36.129Z,30.70
2018-02-18T13:01:04.339Z,30.60
2018-02-18T13:03:33.443Z,30.60
2018-02-18T13:06:01.468Z,30.60
2018-02-18T13:08:30.267Z,30.60
2018-02-18T13:10:59.408Z,30.60
2018-02-18T13:13:27.978Z,30.50
2018-02-18T13:15:57.579Z,30.50
2018-02-18T13:18:27.075Z,30.40
2018-02-18T13:20:56.574Z,30.50
2018-02-18T13:23:25.138Z,30.50
2018-02-18T13:25:53.566Z,30.40
2018-02-18T13:28:22.120Z,30.30
2018-02-18T13:30:50.950Z,30.30
2018-02-18T13:33:20.461Z,30.20
2018-02-18T13:35:48.892Z,30.20
2018-02-18T13:38:17.115Z,30.20
2018-02-18T13:40:47.753Z,30.10
2018-02-18T13:43:16.134Z,30.10
2018-02-18T13:45:44.721Z,30.00
2018-02-18T13:48:14.445Z,30.00
2018-02-18T13:50:43.066Z,29.90
2018-02-18T13:53:11.562Z,29.90
2018-02-18T13:55:41.051Z,29.80
2018-02-18T13:58:09.979Z,29.70
2018-02-18T14:00:38.918Z,29.50
2018-02-18T14:03:07.770Z,29.50
2018-02-18T14:05:37.418Z,29.30
2018-02-18T14:08:06.315Z,29.30
2018-02-18T14:10:35.713Z,29.30
2018-02-18T14:13:04.318Z,29.30
2018-02-18T14:15:32.882Z,29.20
2018-02-18T14:18:01.758Z,29.20
2018-02-18T14:20:30.502Z,29.20
2018-02-18T14:22:59.351Z,29.00
2018-02-18T14:25:28.370Z,29.00
2018-02-18T14:27:57.190Z,28.90
2018-02-18T14:30:25.974Z,28.90
2018-02-18T14:32:55.766Z,29.00
2018-02-18T14:35:25.467Z,29.00
2018-02-18T14:37:53.895Z,28.90
2018-02-18T14:40:22.203Z,28.90
2018-02-18T14:43:02.415Z,28.90
2018-02-18T14:45:42.675Z,28.90
2018-02-18T14:48:22.206Z,28.90
2018-02-18T14:51:03.539Z,28.90
2018-02-18T14:53:43.605Z,28.90
2018-02-18T14:56:23.510Z,28.90
2018-02-18T14:58:52.474Z,28.80
2018-02-18T15:01:22.570Z,28.60
2018-02-18T15:03:50.754Z,28.60
2018-02-18T15:06:18.791Z,28.50
2018-02-18T15:08:48.510Z,28.50
2018-02-18T15:11:17.282Z,28.40
2018-02-18T15:13:45.390Z,28.60
2018-02-18T15:16:13.423Z,28.50
2018-02-18T15:18:42.286Z,28.50
2018-02-18T15:21:10.315Z,28.50
2018-02-18T15:23:38.938Z,28.50
2018-02-18T15:26:08.363Z,28.30
2018-02-18T15:28:37.121Z,28.20
2018-02-18T15:31:06.439Z,28.30
2018-02-18T15:33:34.991Z,28.30
2018-02-18T15:36:03.226Z,28.40
2018-02-18T15:38:32.458Z,28.50
2018-02-18T15:41:01.019Z,28.30
2018-02-18T15:43:29.298Z,28.30
2018-02-18T15:45:58.899Z,28.50
2018-02-18T15:48:27.198Z,28.50
2018-02-18T15:50:56.104Z,28.50
2018-02-18T15:53:25.026Z,28.50
2018-02-18T15:55:54.578Z,28.50
2018-02-18T15:58:23.239Z,28.50
2018-02-18T16:00:52.119Z,28.50
2018-02-18T16:03:21.147Z,28.50
2018-02-18T16:05:49.541Z,28.50
2018-02-18T16:08:17.786Z,28.50
2018-02-18T16:10:47.313Z,28.50
2018-02-18T16:13:16.983Z,28.50
2018-02-18T16:15:45.562Z,28.50
2018-02-18T16:18:13.734Z,28.10
2018-02-18T16:20:42.326Z,27.90
2018-02-18T16:23:11.406Z,27.90
2018-02-18T16:25:39.975Z,27.90
2018-02-18T16:28:08.574Z,28.00
2018-02-18T16:30:36.629Z,27.90
2018-02-18T16:33:04.995Z,28.00
2018-02-18T16:35:33.022Z,28.10
2018-02-18T16:38:01.178Z,28.20
2018-02-18T16:40:29.743Z,28.20
2018-02-18T16:42:58.018Z,28.20
2018-02-18T16:45:27.258Z,28.20
2018-02-18T16:47:56.378Z,28.30
2018-02-18T16:50:25.349Z,28.20
2018-02-18T16:52:53.575Z,28.20
2018-02-18T16:55:22.278Z,28.20
2018-02-18T16:57:50.775Z,28.20
2018-02-18T17:00:18.990Z,28.20
2018-02-18T17:02:48.287Z,28.00
2018-02-18T17:05:17.796Z,28.00
2018-02-18T17:07:46.763Z,28.00
2018-02-18T17:10:15.322Z,28.00
2018-02-18T17:12:44.152Z,28.00
2018-02-18T17:15:13.535Z,28.00
2018-02-18T17:17:41.821Z,28.00
2018-02-18T17:20:09.958Z,27.90
2018-02-18T17:22:38.158Z,27.90
2018-02-18T17:25:06.366Z,27.90
2018-02-18T17:27:37.806Z,27.90
2018-02-18T17:30:06.203Z,27.90
2018-02-18T17:32:35.278Z,27.80
2018-02-18T17:35:03.326Z,27.80
2018-02-18T17:37:31.418Z,27.80
2018-02-18T17:40:00.423Z,27.80
2018-02-18T17:42:30.078Z,27.80
2018-02-18T17:44:58.744Z,27.70
2018-02-18T17:47:28.405Z,27.70
2018-02-18T17:50:03.727Z,27.70
2018-02-18T17:52:32.920Z,27.70
2018-02-18T17:55:01.107Z,27.70
2018-02-18T17:57:29.720Z,27.70
2018-02-18T18:12:52.974Z,27.70
2018-02-18T18:15:21.008Z,27.70
2018-02-18T18:17:49.078Z,27.60
2018-02-18T18:20:17.248Z,27.50
2018-02-18T18:22:45.282Z,27.50
2018-02-18T18:25:14.063Z,27.40
2018-02-18T18:27:42.983Z,27.20
2018-02-18T18:30:11.018Z,27.20
2018-02-18T18:32:39.071Z,27.20
2018-02-18T18:35:07.378Z,27.20
2018-02-18T18:37:35.414Z,27.20
2018-02-18T18:40:03.463Z,27.20
2018-02-18T18:42:31.635Z,27.20
2018-02-18T18:44:59.663Z,27.20
2018-02-18T18:47:27.706Z,27.20
2018-02-18T18:49:55.855Z,27.20
2018-02-18T18:52:23.899Z,27.20
2018-02-18T18:54:52.984Z,27.10
2018-02-18T18:57:21.135Z,27.00
2018-02-18T18:59:49.167Z,27.00
2018-02-18T19:02:17.203Z,27.00
2018-02-18T19:04:45.472Z,27.10
2018-02-18T19:07:13.520Z,27.00
2018-02-18T19:09:41.563Z,27.00
2018-02-18T19:12:09.739Z,27.00
2018-02-18T19:14:37.830Z,26.90
2018-02-18T19:17:05.874Z,26.90
2018-02-18T19:19:34.023Z,26.90
2018-02-18T19:22:02.822Z,26.80
2018-02-18T19:24:31.661Z,26.80
2018-02-18T19:26:59.835Z,26.80
2018-02-18T19:29:27.870Z,26.80
2018-02-18T19:31:56.637Z,26.70
2018-02-18T19:34:25.611Z,26.70
2018-02-18T19:36:53.675Z,26.70
2018-02-18T19:39:21.702Z,26.70
2018-02-18T19:41:49.870Z,26.60
2018-02-18T19:44:18.712Z,26.50
2018-02-18T19:46:46.762Z,26.50
2018-02-18T19:49:15.019Z,26.50
2018-02-18T19:51:43.050Z,26.50
2018-02-18T19:54:11.082Z,26.50
2018-02-18T19:56:39.410Z,26.40
2018-02-18T19:59:07.454Z,26.30
2018-02-18T20:01:35.535Z,26.40
2018-02-18T20:04:03.691Z,26.40
2018-02-18T20:06:31.727Z,26.40
2018-02-18T20:08:59.763Z,26.20
2018-02-18T20:11:27.923Z,26.20
2018-02-18T20:13:55.987Z,26.30
2018-02-18T20:16:24.036Z,26.20
2018-02-18T20:18:52.199Z,26.20
2018-02-18T20:21:20.243Z,26.20
2018-02-18T20:23:49.023Z,26.20
2018-02-18T20:26:17.198Z,26.20
2018-02-18T20:28:45.262Z,26.20
2018-02-18T20:31:13.311Z,26.10
2018-02-18T20:33:41.483Z,26.20
2018-02-18T20:36:09.511Z,26.20
2018-02-18T20:38:38.290Z,26.10
2018-02-18T20:41:06.495Z,26.00
2018-02-18T20:43:34.598Z,26.00
2018-02-18T20:46:02.671Z,26.10
2018-02-18T20:48:30.848Z,26.00
2018-02-18T20:50:58.874Z,26.00
2018-02-18T20:53:27.651Z,25.80
2018-02-18T20:55:56.578Z,25.80
2018-02-18T20:58:24.756Z,25.80
2018-02-18T21:00:52.776Z,25.80
2018-02-18T21:03:20.935Z,25.80
2018-02-18T21:05:48.988Z,25.80
2018-02-18T21:08:17.026Z,25.80
2018-02-18T21:10:45.928Z,25.80
2018-02-18T21:13:13.963Z,25.80
2018-02-18T21:15:42.011Z,25.70
2018-02-18T21:18:10.186Z,25.70
2018-02-18T21:20:38.216Z,25.70
2018-02-18T21:23:06.335Z,25.70
2018-02-18T21:25:34.522Z,25.50
2018-02-18T21:28:02.567Z,25.50
2018-02-18T21:30:30.607Z,25.70
2018-02-18T21:32:58.766Z,25.70
2018-02-18T21:35:27.534Z,25.50
2018-02-18T21:37:55.710Z,25.50
2018-02-18T21:40:23.854Z,25.60
2018-02-18T21:42:51.904Z,25.50
2018-02-18T21:45:19.938Z,25.40
2018-02-18T21:47:48.110Z,25.40
2018-02-18T21:50:16.139Z,25.20
2018-02-18T21:52:44.162Z,25.20
2018-02-18T21:55:13.074Z,25.20
2018-02-18T21:57:41.118Z,25.20
2018-02-18T22:00:09.544Z,25.20
2018-02-18T22:02:37.707Z,25.10
2018-02-18T22:05:05.742Z,25.00
2018-02-18T22:07:33.782Z,25.00
2018-02-18T22:10:01.930Z,24.80
2018-02-18T22:12:29.962Z,25.00
2018-02-18T22:14:58.003Z,24.90
2018-02-18T22:17:26.182Z,25.00
2018-02-18T22:19:54.217Z,24.90
2018-02-18T22:22:22.251Z,24.80
2018-02-18T22:24:50.429Z,24.80
2018-02-18T22:27:18.467Z,24.80
2018-02-18T22:29:46.491Z,24.80
2018-02-18T22:32:15.394Z,24.80
2018-02-18T22:34:43.498Z,24.80
2018-02-18T22:37:11.526Z,24.80
2018-02-18T22:39:40.417Z,24.80
2018-02-18T22:42:09.211Z,24.70
2018-02-18T22:44:38.039Z,24.70
2018-02-18T22:47:06.207Z,24.70
2018-02-18T22:49:34.247Z,24.70
2018-02-18T22:52:03.026Z,24.70
2018-02-18T22:54:31.278Z,24.70
2018-02-18T22:56:59.314Z,24.60
2018-02-18T22:59:27.350Z,24.60
2018-02-18T23:01:56.428Z,24.60
2018-02-18T23:04:24.582Z,24.60
2018-02-18T23:06:52.793Z,24.60
2018-02-18T23:09:21.698Z,24.50
2018-02-18T23:11:50.475Z,24.60
2018-02-18T23:14:19.323Z,24.50
2018-02-18T23:16:47.470Z,24.50
2018-02-18T23:19:15.552Z,24.50
2018-02-18T23:21:43.622Z,24.40
2018-02-18T23:24:11.863Z,24.40
2018-02-18T23:26:40.654Z,24.40
2018-02-18T23:29:08.699Z,24.40
2018-02-18T23:31:36.854Z,24.40
2018-02-18T23:34:04.927Z,24.40
2018-02-18T23:36:32.967Z,24.40
2018-02-18T23:39:01.114Z,24.50
2018-02-18T23:41:29.150Z,24.40
2018-02-18T23:43:57.202Z,24.40
2018-02-18T23:46:25.367Z,24.40
2018-02-18T23:48:53.414Z,24.40
2018-02-18T23:51:22.178Z,24.30
2018-02-18T23:53:50.461Z,24.30
2018-02-18T23:56:18.483Z,24.20
2018-02-18T23:58:46.510Z,24.20
